createdAt,value
2023-02-03T00:03:34.529Z,2.58
2023-02-03T00:08:34.744Z,2.69
2023-02-03T00:13:34.503Z,2.35
2023-02-03T00:18:33.536Z,2.24
2023-02-03T00:23:32.977Z,2.35
2023-02-03T00:28:33.233Z,2.41
2023-02-03T00:33:33.844Z,2.43
2023-02-03T00:38:33.785Z,2.53
2023-02-03T00:43:34.018Z,2.26
2023-02-03T00:48:32.812Z,2.57
2023-02-03T00:53:31.651Z,2.44
2023-02-03T00:58:30.397Z,2.27
2023-02-03T01:03:30.566Z,2.28
2023-02-03T01:08:29.319Z,2.14
2023-02-03T01:13:28.042Z,2.16
2023-02-03T01:18:26.744Z,2.02
2023-02-03T01:23:26.943Z,2.10
2023-02-03T01:28:25.708Z,2.11
2023-02-03T01:33:24.658Z,2.25
2023-02-03T01:38:23.446Z,2.43
2023-02-03T01:43:35.436Z,2.52
2023-02-03T01:48:35.736Z,2.55
2023-02-03T01:53:35.271Z,2.42
2023-02-03T01:58:40.959Z,2.61
2023-02-03T02:03:44.217Z,2.68
2023-02-03T02:08:47.250Z,2.77
2023-02-03T02:13:49.505Z,2.51
2023-02-03T02:19:02.085Z,2.39
2023-02-03T02:24:36.737Z,2.39
2023-02-03T02:30:14.419Z,2.52
2023-02-03T02:35:22.108Z,2.36
2023-02-03T02:40:31.268Z,2.72
2023-02-03T02:45:35.584Z,2.80
2023-02-03T02:50:41.681Z,2.76
2023-02-03T02:55:44.662Z,2.79
2023-02-03T03:00:45.748Z,2.55
2023-02-03T03:05:52.210Z,2.71
2023-02-03T03:10:57.005Z,2.70
2023-02-03T03:15:58.067Z,2.57
2023-02-03T03:21:06.132Z,2.62
2023-02-03T03:26:11.342Z,2.64
2023-02-03T03:31:10.336Z,2.71
2023-02-03T03:36:19.340Z,2.54
2023-02-03T03:41:26.585Z,2.58
2023-02-03T03:46:29.916Z,2.46
2023-02-03T03:51:36.011Z,2.66
2023-02-03T03:56:40.580Z,2.55
2023-02-03T04:01:40.752Z,2.50
2023-02-03T04:06:41.560Z,2.65
2023-02-03T04:11:57.446Z,2.76
2023-02-03T04:16:56.202Z,2.66
2023-02-03T04:21:56.500Z,2.57
2023-02-03T04:26:55.229Z,2.73
2023-02-03T04:31:54.014Z,2.63
2023-02-03T04:36:52.818Z,2.84
2023-02-03T04:41:53.295Z,2.78
2023-02-03T04:46:52.194Z,2.74
2023-02-03T04:51:51.186Z,2.67
2023-02-03T04:56:49.943Z,2.72
2023-02-03T05:01:50.086Z,2.98
2023-02-03T05:06:49.137Z,2.86
2023-02-03T05:11:47.888Z,2.53
2023-02-03T05:16:46.834Z,2.52
2023-02-03T05:21:47.004Z,2.92
2023-02-03T05:26:45.752Z,3.05
2023-02-03T05:31:44.473Z,2.97
2023-02-03T05:36:43.224Z,2.92
2023-02-03T05:41:58.269Z,2.92
2023-02-03T05:46:59.169Z,3.00
2023-02-03T05:51:58.138Z,3.00
2023-02-03T05:56:58.315Z,3.15
2023-02-03T06:01:57.204Z,3.16
2023-02-03T06:06:56.035Z,2.89
2023-02-03T06:11:54.865Z,2.91
2023-02-03T06:16:55.136Z,2.86
2023-02-03T06:21:53.845Z,2.88
2023-02-03T06:26:52.649Z,2.96
2023-02-03T06:31:51.819Z,2.56
2023-02-03T06:36:52.109Z,2.81
2023-02-03T06:41:51.867Z,2.67
2023-02-03T06:46:51.387Z,2.93
2023-02-03T06:51:52.464Z,3.01
2023-02-03T06:56:51.371Z,2.97
2023-02-03T07:01:50.199Z,3.25
2023-02-03T07:06:48.942Z,3.26
2023-02-03T07:11:49.087Z,3.11
2023-02-03T07:16:47.840Z,3.17
2023-02-03T07:21:46.520Z,3.17
2023-02-03T07:26:45.183Z,3.23
2023-02-03T07:31:45.695Z,3.09
2023-02-03T07:36:44.509Z,3.02
2023-02-03T07:41:43.365Z,3.02
2023-02-03T07:46:45.083Z,3.38
2023-02-03T07:51:45.373Z,3.25
2023-02-03T07:56:44.859Z,3.47
2023-02-03T08:02:28.131Z,3.80
2023-02-03T08:07:28.762Z,4.19
2023-02-03T08:12:43.943Z,4.06
2023-02-03T08:17:44.674Z,4.23
2023-02-03T08:22:57.398Z,4.13
2023-02-03T08:27:56.521Z,4.36
2023-02-03T08:32:55.562Z,4.12
2023-02-03T08:37:55.986Z,4.40
2023-02-03T08:42:55.004Z,4.79
2023-02-03T08:47:54.012Z,4.76
2023-02-03T08:52:52.903Z,4.82
2023-02-03T08:57:53.514Z,5.03
2023-02-03T09:02:52.377Z,5.05
2023-02-03T09:07:56.494Z,5.25
2023-02-03T09:13:04.316Z,5.53
2023-02-03T09:18:03.271Z,5.72
2023-02-03T09:23:02.491Z,5.80
2023-02-03T09:28:04.743Z,5.97
2023-02-03T09:33:04.439Z,6.06
2023-02-03T09:38:19.965Z,5.73
2023-02-03T09:43:46.644Z,5.85
2023-02-03T09:48:49.523Z,6.32
2023-02-03T09:53:53.305Z,6.41
2023-02-03T09:58:53.326Z,6.12
2023-02-03T10:03:58.641Z,6.18
2023-02-03T10:09:15.159Z,6.47
2023-02-03T10:14:29.736Z,6.62
2023-02-03T10:19:40.398Z,6.59
2023-02-03T10:24:45.085Z,6.70
2023-02-03T10:29:45.734Z,6.90
2023-02-03T10:34:48.502Z,6.89
2023-02-03T10:39:49.561Z,6.74
2023-02-03T10:45:07.734Z,6.62
2023-02-03T10:50:09.054Z,6.69
2023-02-03T10:55:11.491Z,7.34
2023-02-03T11:00:24.623Z,8.59
2023-02-03T11:05:26.595Z,9.47
2023-02-03T11:10:36.158Z,10.04
2023-02-03T11:15:36.585Z,11.02
2023-02-03T11:20:38.178Z,11.39
2023-02-03T11:25:37.147Z,11.64
2023-02-03T11:30:39.613Z,12.00
2023-02-03T11:35:40.231Z,11.95
2023-02-03T11:40:41.945Z,12.37
2023-02-03T11:45:44.870Z,12.50
2023-02-03T11:50:50.814Z,12.42
2023-02-03T11:56:18.516Z,11.83
2023-02-03T12:01:29.843Z,12.11
2023-02-03T12:06:57.460Z,11.77
2023-02-03T12:12:21.749Z,11.88
2023-02-03T12:17:57.609Z,12.71
2023-02-03T12:23:07.364Z,12.36
2023-02-03T12:28:32.501Z,12.01
2023-02-03T12:33:40.750Z,12.40
2023-02-03T12:38:45.272Z,12.59
2023-02-03T12:43:50.312Z,12.29
2023-02-03T12:48:59.977Z,12.38
2023-02-03T12:54:04.879Z,12.20
2023-02-03T12:59:09.468Z,11.80
2023-02-03T13:04:22.140Z,11.13
2023-02-03T13:09:30.092Z,10.64
2023-02-03T13:14:34.364Z,10.52
2023-02-03T13:19:42.480Z,10.52
2023-02-03T13:24:49.406Z,10.55
2023-02-03T13:36:00.042Z,9.38
2023-02-03T13:41:30.379Z,9.51
2023-02-03T13:46:34.370Z,9.74
2023-02-03T13:51:37.254Z,9.08
2023-02-03T13:56:37.187Z,9.23
2023-02-03T14:07:47.214Z,9.80
2023-02-03T14:13:06.562Z,9.72
2023-02-03T14:18:42.302Z,9.51
2023-02-03T14:24:24.181Z,9.25
2023-02-03T14:29:30.468Z,9.38
2023-02-03T14:34:58.357Z,9.08
2023-02-03T14:40:48.332Z,8.72
2023-02-03T14:46:35.141Z,8.43
2023-02-03T14:57:48.243Z,7.78
2023-02-03T15:03:25.622Z,7.44
2023-02-03T15:08:49.876Z,7.05
2023-02-03T15:14:00.807Z,6.84
2023-02-03T15:19:33.455Z,6.56
2023-02-03T15:24:47.083Z,6.55
2023-02-03T15:29:46.510Z,6.48
2023-02-03T15:35:00.885Z,6.17
2023-02-03T15:40:20.851Z,5.99
2023-02-03T15:45:52.032Z,5.77
2023-02-03T15:51:53.031Z,5.75
2023-02-03T15:57:22.060Z,5.31
2023-02-03T16:02:34.629Z,5.58
2023-02-03T16:07:33.621Z,5.55
2023-02-03T16:12:36.243Z,5.09
2023-02-03T16:17:37.332Z,5.21
2023-02-03T16:22:39.855Z,5.16
2023-02-03T16:27:40.293Z,5.05
2023-02-03T16:32:57.906Z,4.87
2023-02-03T16:38:14.968Z,4.83
2023-02-03T16:43:34.725Z,4.63
2023-02-03T16:48:51.295Z,4.71
2023-02-03T16:53:50.914Z,4.43
2023-02-03T16:58:56.398Z,4.41
2023-02-03T17:03:57.355Z,4.28
2023-02-03T17:08:58.906Z,4.34
2023-02-03T17:14:05.863Z,4.15
2023-02-03T17:19:06.227Z,4.18
2023-02-03T17:24:07.795Z,4.11
2023-02-03T17:29:11.009Z,4.34
2023-02-03T17:34:10.330Z,4.24
2023-02-03T17:55:03.504Z,4.06
2023-02-03T18:00:04.579Z,4.10
2023-02-03T18:05:11.625Z,4.10
2023-02-03T18:10:11.292Z,3.84
2023-02-03T18:15:21.437Z,3.77
2023-02-03T18:20:23.281Z,3.95
2023-02-03T18:25:22.527Z,3.95
2023-02-03T18:30:23.053Z,3.82
2023-02-03T18:35:22.322Z,3.77
2023-02-03T18:40:21.553Z,3.78
2023-02-03T18:45:23.670Z,3.63
2023-02-03T18:50:24.447Z,3.55
2023-02-03T18:55:24.274Z,3.57
2023-02-03T19:00:23.420Z,3.67
2023-02-03T19:05:24.115Z,3.77
2023-02-03T19:10:23.733Z,3.92
2023-02-03T19:15:23.755Z,3.92
2023-02-03T19:20:25.096Z,3.94
2023-02-03T19:25:27.011Z,4.12
2023-02-03T19:30:26.457Z,4.04
2023-02-03T19:35:27.299Z,3.79
2023-02-03T19:40:26.735Z,3.88
2023-02-03T19:45:27.259Z,4.05
2023-02-03T19:50:28.106Z,4.01
2023-02-03T19:55:31.056Z,3.93
2023-02-03T20:00:30.871Z,3.82
2023-02-03T20:05:31.896Z,4.08
2023-02-03T20:10:32.707Z,3.94
2023-02-03T20:15:35.095Z,3.79
2023-02-03T20:20:41.854Z,3.93
2023-02-03T20:25:41.009Z,3.84
2023-02-03T20:30:43.349Z,4.01
2023-02-03T20:35:45.167Z,4.06
2023-02-03T20:40:45.014Z,4.12
2023-02-03T20:45:44.620Z,4.01
2023-02-03T20:50:47.468Z,3.75
2023-02-03T20:55:46.914Z,3.75
2023-02-03T21:00:46.418Z,3.81
2023-02-03T21:05:46.765Z,3.67
2023-02-03T21:10:48.088Z,3.67
2023-02-03T21:15:47.348Z,3.81
2023-02-03T21:20:51.100Z,3.82
2023-02-03T21:25:50.706Z,3.46
2023-02-03T21:30:49.937Z,3.68
2023-02-03T21:35:52.403Z,3.55
2023-02-03T21:41:07.161Z,3.69
2023-02-03T21:46:17.084Z,3.62
2023-02-03T21:51:23.977Z,3.68
2023-02-03T21:56:25.224Z,3.47
2023-02-03T22:01:26.309Z,3.66
2023-02-03T22:06:32.542Z,3.56
2023-02-03T22:11:33.348Z,3.66
2023-02-03T22:16:32.411Z,3.62
2023-02-03T22:21:35.982Z,3.68
2023-02-03T22:26:39.548Z,3.69
2023-02-03T22:31:39.039Z,3.77
2023-02-03T22:36:45.770Z,3.85
2023-02-03T22:41:50.365Z,4.04
2023-02-03T22:46:56.248Z,4.03
2023-02-03T22:52:01.560Z,4.24
2023-02-03T22:57:02.788Z,4.33
2023-02-03T23:02:02.263Z,4.21
2023-02-03T23:07:02.863Z,4.21
2023-02-03T23:12:02.392Z,4.28
2023-02-03T23:17:04.260Z,4.26
2023-02-03T23:22:06.278Z,4.46
2023-02-03T23:27:08.958Z,4.37
2023-02-03T23:32:11.079Z,3.99
2023-02-03T23:37:13.250Z,4.07
2023-02-03T23:42:12.674Z,4.00
2023-02-03T23:47:11.924Z,3.83
2023-02-03T23:52:12.635Z,3.53
2023-02-03T23:57:12.014Z,3.52
